createdAt,value
2023-02-02T00:01:00.972Z,2.63
2023-02-02T00:03:27.295Z,2.59
2023-02-02T00:05:54.174Z,2.62
2023-02-02T00:08:21.991Z,2.61
2023-02-02T00:10:50.379Z,2.64
2023-02-02T00:13:17.109Z,2.58
2023-02-02T00:15:43.883Z,2.57
2023-02-02T00:18:10.200Z,2.62
2023-02-02T00:20:36.582Z,2.67
2023-02-02T00:23:04.459Z,2.73
2023-02-02T00:25:31.314Z,2.70
2023-02-02T00:27:57.686Z,2.74
2023-02-02T00:30:24.317Z,2.65
2023-02-02T00:32:52.931Z,2.68
2023-02-02T00:35:19.862Z,2.71
2023-02-02T00:37:46.174Z,2.66
2023-02-02T00:40:12.617Z,2.71
2023-02-02T00:42:39.532Z,2.75
2023-02-02T00:45:18.435Z,2.71
2023-02-02T00:47:47.908Z,2.70
2023-02-02T00:50:19.275Z,2.69
2023-02-02T00:52:47.547Z,2.77
2023-02-02T00:55:14.932Z,2.77
2023-02-02T00:57:41.516Z,2.73
2023-02-02T01:00:09.868Z,2.66
2023-02-02T01:02:36.322Z,2.65
2023-02-02T01:05:03.742Z,2.70
2023-02-02T01:07:31.021Z,2.68
2023-02-02T01:09:57.404Z,2.73
2023-02-02T01:12:24.120Z,2.72
2023-02-02T01:14:50.800Z,2.77
2023-02-02T01:17:18.112Z,2.74
2023-02-02T01:19:44.454Z,2.68
2023-02-02T01:22:10.891Z,2.69
2023-02-02T01:24:37.724Z,2.69
2023-02-02T01:27:04.121Z,2.70
2023-02-02T01:29:30.531Z,2.71
2023-02-02T01:31:58.533Z,2.77
2023-02-02T01:34:25.005Z,2.81
2023-02-02T01:36:51.349Z,2.92
2023-02-02T01:39:18.268Z,2.79
2023-02-02T01:41:44.813Z,2.72
2023-02-02T01:44:49.243Z,2.73
2023-02-02T01:47:15.853Z,2.81
2023-02-02T01:49:42.365Z,2.82
2023-02-02T01:52:10.382Z,2.84
2023-02-02T01:54:41.796Z,2.83
2023-02-02T01:57:28.753Z,2.81
2023-02-02T01:59:58.640Z,2.74
2023-02-02T02:02:27.316Z,2.70
2023-02-02T02:04:55.274Z,2.75
2023-02-02T02:07:22.501Z,2.84
2023-02-02T02:09:49.369Z,2.90
2023-02-02T02:12:16.220Z,2.88
2023-02-02T02:15:05.013Z,2.95
2023-02-02T02:17:55.913Z,3.10
2023-02-02T02:21:16.924Z,3.18
2023-02-02T02:24:20.332Z,3.23
2023-02-02T02:27:00.851Z,3.19
2023-02-02T02:29:56.997Z,3.10
2023-02-02T02:32:41.578Z,3.04
2023-02-02T02:35:20.224Z,3.02
2023-02-02T02:37:49.544Z,3.04
2023-02-02T02:40:32.629Z,2.99
2023-02-02T02:43:06.454Z,2.97
2023-02-02T02:45:34.882Z,2.98
2023-02-02T02:48:03.091Z,2.96
2023-02-02T02:50:29.613Z,3.00
2023-02-02T02:53:11.956Z,2.97
2023-02-02T02:56:18.603Z,3.01
2023-02-02T02:58:52.557Z,3.04
2023-02-02T03:01:24.895Z,2.97
2023-02-02T03:04:06.367Z,2.98
2023-02-02T03:06:42.483Z,2.99
2023-02-02T03:09:13.912Z,2.95
2023-02-02T03:11:40.784Z,2.95
2023-02-02T03:14:09.628Z,3.00
2023-02-02T03:16:37.833Z,3.04
2023-02-02T03:19:05.957Z,3.07
2023-02-02T03:21:33.596Z,3.10
2023-02-02T03:24:00.841Z,3.08
2023-02-02T03:26:27.483Z,3.13
2023-02-02T03:28:56.107Z,3.04
2023-02-02T03:31:23.170Z,3.08
2023-02-02T03:33:49.544Z,3.15
2023-02-02T03:36:15.939Z,3.12
2023-02-02T03:38:42.789Z,3.10
2023-02-02T03:41:09.117Z,3.10
2023-02-02T03:43:35.440Z,3.13
2023-02-02T03:46:04.757Z,3.18
2023-02-02T03:48:35.077Z,3.13
2023-02-02T03:51:06.172Z,3.16
2023-02-02T03:53:32.475Z,3.04
2023-02-02T03:55:58.781Z,2.94
2023-02-02T03:58:25.491Z,2.93
2023-02-02T04:00:51.858Z,3.01
2023-02-02T04:03:18.179Z,2.93
2023-02-02T04:05:44.915Z,2.96
2023-02-02T04:08:11.221Z,2.95
2023-02-02T04:10:39.561Z,2.91
2023-02-02T04:13:06.312Z,2.94
2023-02-02T04:15:32.967Z,3.00
2023-02-02T04:17:59.308Z,3.02
2023-02-02T04:20:25.610Z,2.93
2023-02-02T04:22:52.275Z,2.93
2023-02-02T04:25:18.576Z,2.93
2023-02-02T04:27:44.916Z,2.97
2023-02-02T04:30:12.242Z,2.96
2023-02-02T04:32:38.613Z,3.09
2023-02-02T04:35:05.211Z,3.09
2023-02-02T04:37:32.850Z,3.07
2023-02-02T04:39:59.194Z,3.18
2023-02-02T04:42:25.592Z,3.19
2023-02-02T04:44:52.406Z,3.26
2023-02-02T04:47:18.712Z,3.29
2023-02-02T04:49:45.057Z,3.20
2023-02-02T04:52:12.364Z,3.30
2023-02-02T04:54:38.674Z,3.27
2023-02-02T04:57:05.002Z,3.34
2023-02-02T04:59:31.342Z,3.36
2023-02-02T05:02:02.020Z,3.36
2023-02-02T05:04:28.668Z,3.31
2023-02-02T05:06:55.049Z,3.28
2023-02-02T05:09:21.725Z,3.10
2023-02-02T05:11:48.074Z,3.09
2023-02-02T05:14:16.905Z,3.13
2023-02-02T05:16:43.752Z,3.10
2023-02-02T05:19:17.044Z,3.11
2023-02-02T05:21:44.723Z,3.12
2023-02-02T05:24:12.089Z,3.13
2023-02-02T05:26:39.075Z,3.17
2023-02-02T05:29:06.658Z,3.18
2023-02-02T05:31:33.375Z,3.23
2023-02-02T05:34:00.245Z,3.23
2023-02-02T05:36:26.832Z,3.16
2023-02-02T05:38:53.143Z,3.26
2023-02-02T05:41:19.877Z,3.32
2023-02-02T05:43:46.188Z,3.38
2023-02-02T05:46:12.676Z,3.36
2023-02-02T05:48:39.265Z,3.32
2023-02-02T05:51:22.053Z,3.35
2023-02-02T05:53:48.419Z,3.37
2023-02-02T05:56:15.731Z,3.37
2023-02-02T05:58:43.642Z,3.35
2023-02-02T06:01:10.177Z,3.35
2023-02-02T06:03:36.659Z,3.43
2023-02-02T06:06:06.573Z,3.37
2023-02-02T06:08:33.729Z,3.35
2023-02-02T06:11:00.098Z,3.31
2023-02-02T06:13:26.432Z,3.43
2023-02-02T06:15:53.239Z,3.44
2023-02-02T06:18:19.647Z,3.46
2023-02-02T06:20:48.006Z,3.54
2023-02-02T06:23:14.352Z,3.47
2023-02-02T06:25:40.658Z,3.48
2023-02-02T06:28:07.956Z,3.45
2023-02-02T06:30:34.711Z,3.51
2023-02-02T06:33:01.752Z,3.52
2023-02-02T06:35:28.193Z,3.54
2023-02-02T06:37:54.602Z,3.60
2023-02-02T06:40:21.308Z,3.61
2023-02-02T06:42:47.608Z,3.51
2023-02-02T06:45:13.978Z,3.53
2023-02-02T06:47:40.846Z,3.53
2023-02-02T06:50:07.560Z,3.39
2023-02-02T06:52:33.869Z,3.47
2023-02-02T06:55:00.623Z,3.38
2023-02-02T06:57:26.980Z,3.46
2023-02-02T06:59:53.296Z,3.39
2023-02-02T07:02:20.058Z,3.35
2023-02-02T07:04:46.386Z,3.31
2023-02-02T07:07:12.792Z,3.36
2023-02-02T07:09:39.668Z,3.40
2023-02-02T07:12:06.276Z,3.28
2023-02-02T07:14:32.627Z,3.35
2023-02-02T07:16:59.364Z,3.40
2023-02-02T07:19:26.217Z,3.35
2023-02-02T07:21:53.320Z,3.35
2023-02-02T07:24:19.656Z,3.34
2023-02-02T07:26:46.011Z,3.44
2023-02-02T07:29:16.601Z,3.27
2023-02-02T07:31:43.077Z,3.12
2023-02-02T07:34:10.494Z,3.15
2023-02-02T07:36:37.675Z,3.23
2023-02-02T07:39:05.616Z,3.11
2023-02-02T07:41:34.633Z,3.08
2023-02-02T07:44:01.647Z,3.04
2023-02-02T07:46:28.402Z,3.04
2023-02-02T07:48:55.760Z,3.13
2023-02-02T07:51:22.701Z,3.14
2023-02-02T07:53:51.995Z,3.17
2023-02-02T07:56:20.791Z,3.16
2023-02-02T07:58:47.673Z,3.16
2023-02-02T08:01:16.366Z,3.12
2023-02-02T08:03:43.581Z,3.14
2023-02-02T08:06:20.354Z,3.05
2023-02-02T08:08:47.594Z,3.04
2023-02-02T08:11:15.938Z,3.07
2023-02-02T08:13:43.852Z,3.12
2023-02-02T08:16:11.152Z,2.98
2023-02-02T08:18:38.474Z,2.97
2023-02-02T08:21:08.550Z,2.93
2023-02-02T08:23:36.550Z,2.94
2023-02-02T08:26:11.941Z,2.95
2023-02-02T08:28:39.762Z,2.98
2023-02-02T08:31:09.000Z,3.01
2023-02-02T08:33:36.532Z,3.03
2023-02-02T08:36:03.923Z,3.02
2023-02-02T08:38:30.497Z,3.06
2023-02-02T08:41:04.938Z,3.04
2023-02-02T08:43:31.249Z,3.09
2023-02-02T08:46:02.074Z,3.13
2023-02-02T08:48:30.426Z,3.15
2023-02-02T08:50:58.811Z,3.13
2023-02-02T08:53:26.566Z,3.11
2023-02-02T08:56:27.084Z,3.11
2023-02-02T08:58:56.274Z,3.11
2023-02-02T09:01:31.246Z,3.11
2023-02-02T09:04:02.326Z,3.18
2023-02-02T09:06:38.333Z,3.22
2023-02-02T09:09:07.066Z,3.26
2023-02-02T09:11:34.101Z,3.26
2023-02-02T09:14:03.484Z,3.29
2023-02-02T09:16:30.183Z,3.36
2023-02-02T09:18:56.923Z,3.37
2023-02-02T09:21:24.075Z,3.32
2023-02-02T09:23:53.583Z,3.40
2023-02-02T09:26:32.599Z,3.49
2023-02-02T09:29:02.641Z,3.46
2023-02-02T09:31:30.867Z,3.48
2023-02-02T09:34:01.574Z,3.45
2023-02-02T09:36:28.006Z,3.50
2023-02-02T09:38:54.328Z,3.55
2023-02-02T09:41:39.334Z,3.53
2023-02-02T09:44:25.026Z,3.48
2023-02-02T09:47:06.846Z,3.43
2023-02-02T09:49:55.738Z,3.48
2023-02-02T09:52:28.897Z,3.54
2023-02-02T09:55:04.995Z,3.52
2023-02-02T09:57:45.629Z,3.52
2023-02-02T10:00:21.699Z,3.57
2023-02-02T10:02:51.187Z,3.69
2023-02-02T10:05:25.078Z,3.78
2023-02-02T10:07:57.823Z,3.74
2023-02-02T10:10:29.424Z,3.61
2023-02-02T10:12:55.856Z,3.56
2023-02-02T10:15:44.929Z,3.62
2023-02-02T10:18:20.094Z,3.54
2023-02-02T10:21:01.692Z,3.47
2023-02-02T10:23:30.859Z,3.48
2023-02-02T10:26:16.221Z,3.46
2023-02-02T10:29:01.759Z,3.45
2023-02-02T10:31:40.413Z,3.50
2023-02-02T10:34:18.314Z,3.48
2023-02-02T10:37:10.930Z,3.49
2023-02-02T10:40:07.684Z,3.44
2023-02-02T10:42:34.049Z,3.47
2023-02-02T10:45:09.144Z,3.44
2023-02-02T10:47:37.090Z,3.47
2023-02-02T10:50:13.134Z,3.46
2023-02-02T10:53:03.195Z,3.48
2023-02-02T10:55:41.720Z,3.37
2023-02-02T10:58:11.122Z,3.41
2023-02-02T11:00:37.701Z,3.41
2023-02-02T11:03:07.576Z,3.46
2023-02-02T11:05:52.673Z,3.62
2023-02-02T11:08:43.039Z,3.56
2023-02-02T11:11:11.204Z,3.52
2023-02-02T11:13:44.620Z,3.48
2023-02-02T11:16:19.859Z,3.47
2023-02-02T11:18:46.798Z,3.43
2023-02-02T11:21:22.325Z,3.47
2023-02-02T11:24:03.108Z,3.49
2023-02-02T11:26:52.091Z,3.44
2023-02-02T11:29:26.980Z,3.42
2023-02-02T11:31:53.486Z,3.48
2023-02-02T11:34:25.518Z,3.42
2023-02-02T11:37:01.180Z,3.52
2023-02-02T11:39:28.166Z,3.45
2023-02-02T11:42:04.141Z,3.53
2023-02-02T11:44:32.456Z,3.55
2023-02-02T11:47:00.526Z,3.48
2023-02-02T11:49:28.040Z,3.39
2023-02-02T11:52:00.626Z,3.48
2023-02-02T11:54:30.632Z,3.60
2023-02-02T11:57:00.560Z,3.51
2023-02-02T11:59:38.683Z,3.74
2023-02-02T12:02:20.339Z,3.55
2023-02-02T12:04:52.445Z,3.41
2023-02-02T12:07:30.006Z,3.42
2023-02-02T12:10:00.575Z,3.42
2023-02-02T12:12:42.891Z,3.39
2023-02-02T12:15:31.860Z,3.33
2023-02-02T12:18:16.236Z,3.26
2023-02-02T12:20:57.983Z,3.28
2023-02-02T12:23:31.620Z,3.44
2023-02-02T12:26:14.488Z,3.44
2023-02-02T12:29:39.804Z,3.40
2023-02-02T12:32:11.932Z,3.44
2023-02-02T12:34:52.139Z,3.42
2023-02-02T12:37:37.198Z,3.31
2023-02-02T12:40:30.541Z,3.30
2023-02-02T12:43:17.814Z,3.31
2023-02-02T12:46:10.781Z,3.31
2023-02-02T12:49:02.805Z,3.46
2023-02-02T12:51:44.365Z,3.35
2023-02-02T12:54:50.457Z,3.48
2023-02-02T12:57:36.078Z,3.35
2023-02-02T13:00:05.556Z,3.50
2023-02-02T13:03:07.522Z,3.49
2023-02-02T13:05:59.961Z,3.48
2023-02-02T13:08:58.175Z,3.46
2023-02-02T13:11:50.455Z,3.42
2023-02-02T13:14:33.192Z,3.48
2023-02-02T13:17:07.657Z,3.38
2023-02-02T13:19:40.978Z,3.46
2023-02-02T13:22:14.555Z,3.60
2023-02-02T13:24:45.233Z,3.58
2023-02-02T13:27:17.750Z,3.44
2023-02-02T13:30:19.128Z,3.55
2023-02-02T13:32:48.924Z,3.60
2023-02-02T13:35:49.755Z,3.40
2023-02-02T13:38:23.429Z,3.50
2023-02-02T13:40:53.229Z,3.66
2023-02-02T13:43:19.648Z,3.80
2023-02-02T13:46:32.358Z,3.58
2023-02-02T13:49:20.255Z,3.60
2023-02-02T13:52:00.566Z,3.85
2023-02-02T13:54:51.738Z,3.76
2023-02-02T13:57:36.947Z,3.56
2023-02-02T14:00:20.012Z,3.67
2023-02-02T14:02:51.879Z,3.54
2023-02-02T14:05:40.443Z,3.64
2023-02-02T14:08:22.529Z,3.59
2023-02-02T14:10:51.911Z,3.70
2023-02-02T14:13:43.373Z,3.75
2023-02-02T14:16:22.149Z,3.73
2023-02-02T14:18:49.001Z,3.90
2023-02-02T14:21:33.519Z,3.82
2023-02-02T14:24:00.253Z,3.89
2023-02-02T14:26:50.481Z,3.93
2023-02-02T14:29:32.835Z,3.84
2023-02-02T14:32:02.114Z,3.79
2023-02-02T14:34:39.327Z,3.62
2023-02-02T14:37:24.429Z,3.55
2023-02-02T14:40:17.315Z,3.41
2023-02-02T14:43:24.524Z,3.34
2023-02-02T14:46:12.964Z,3.30
2023-02-02T14:48:42.601Z,3.32
2023-02-02T14:51:21.286Z,3.38
2023-02-02T14:53:58.696Z,3.37
2023-02-02T14:56:45.386Z,3.38
2023-02-02T14:59:20.715Z,3.53
2023-02-02T15:02:01.050Z,3.37
2023-02-02T15:04:29.906Z,3.31
2023-02-02T15:06:56.591Z,3.50
2023-02-02T15:09:23.400Z,3.39
2023-02-02T15:12:25.017Z,3.51
2023-02-02T15:15:11.075Z,3.52
2023-02-02T15:17:40.742Z,3.40
2023-02-02T15:20:21.428Z,3.42
2023-02-02T15:22:47.827Z,3.44
2023-02-02T15:25:36.394Z,3.52
2023-02-02T15:28:24.997Z,3.49
2023-02-02T15:30:57.425Z,3.47
2023-02-02T15:33:36.458Z,3.36
2023-02-02T15:36:13.034Z,3.38
2023-02-02T15:38:41.801Z,3.42
2023-02-02T15:41:14.216Z,3.39
2023-02-02T15:43:40.695Z,3.33
2023-02-02T15:46:12.803Z,3.36
2023-02-02T15:48:40.011Z,3.35
2023-02-02T15:51:20.245Z,3.33
2023-02-02T15:53:50.277Z,3.34
2023-02-02T15:56:19.669Z,3.30
2023-02-02T15:58:54.854Z,3.33
2023-02-02T16:01:26.498Z,3.33
2023-02-02T16:04:07.354Z,3.36
2023-02-02T16:06:34.803Z,3.30
2023-02-02T16:09:06.935Z,3.30
2023-02-02T16:11:34.017Z,3.30
2023-02-02T16:14:04.165Z,3.32
2023-02-02T16:16:36.464Z,3.30
2023-02-02T16:19:14.789Z,3.33
2023-02-02T16:21:52.496Z,3.29
2023-02-02T16:24:26.068Z,3.31
2023-02-02T16:26:54.604Z,3.29
2023-02-02T16:29:22.127Z,3.29
2023-02-02T16:31:49.701Z,3.31
2023-02-02T16:34:18.837Z,3.33
2023-02-02T16:37:04.730Z,3.30
2023-02-02T16:39:31.136Z,3.30
2023-02-02T16:42:09.280Z,3.30
2023-02-02T16:44:46.423Z,3.30
2023-02-02T16:47:25.436Z,3.26
2023-02-02T16:50:09.596Z,3.26
2023-02-02T16:52:51.042Z,3.35
2023-02-02T16:55:19.430Z,3.30
2023-02-02T16:57:48.437Z,3.35
2023-02-02T17:00:27.372Z,3.48
2023-02-02T17:02:59.834Z,3.46
2023-02-02T17:05:48.906Z,3.46
2023-02-02T17:08:26.198Z,3.36
2023-02-02T17:11:18.756Z,3.48
2023-02-02T17:13:45.234Z,3.51
2023-02-02T17:16:19.329Z,3.54
2023-02-02T17:18:46.431Z,3.44
2023-02-02T17:21:34.257Z,3.40
2023-02-02T17:24:01.213Z,3.31
2023-02-02T17:26:27.720Z,3.28
2023-02-02T17:29:00.608Z,3.28
2023-02-02T17:31:27.197Z,3.34
2023-02-02T17:33:53.680Z,3.31
2023-02-02T17:36:21.014Z,3.26
2023-02-02T17:38:47.497Z,3.23
2023-02-02T17:41:14.377Z,3.22
2023-02-02T17:43:42.981Z,3.30
2023-02-02T17:46:13.047Z,3.22
2023-02-02T17:48:39.502Z,3.20
2023-02-02T17:51:07.461Z,3.28
2023-02-02T17:53:34.538Z,3.18
2023-02-02T17:56:00.980Z,3.19
2023-02-02T17:58:28.249Z,3.21
2023-02-02T18:00:58.935Z,3.21
2023-02-02T18:03:34.233Z,3.23
2023-02-02T18:06:01.762Z,3.27
2023-02-02T18:08:29.418Z,3.30
2023-02-02T18:10:56.852Z,3.32
2023-02-02T18:13:23.844Z,3.30
2023-02-02T18:15:52.018Z,3.18
2023-02-02T18:18:18.787Z,3.23
2023-02-02T18:20:48.468Z,3.26
2023-02-02T18:23:16.555Z,3.39
2023-02-02T18:25:43.351Z,3.37
2023-02-02T18:28:11.092Z,3.35
2023-02-02T18:30:38.913Z,3.26
2023-02-02T18:33:08.092Z,3.37
2023-02-02T18:35:35.460Z,3.43
2023-02-02T18:38:01.947Z,3.45
2023-02-02T18:40:28.353Z,3.44
2023-02-02T18:42:55.087Z,3.32
2023-02-02T18:45:22.426Z,3.32
2023-02-02T18:47:49.589Z,3.27
2023-02-02T18:50:16.352Z,3.29
2023-02-02T18:52:43.062Z,3.29
2023-02-02T18:55:09.613Z,3.42
2023-02-02T18:57:36.080Z,3.34
2023-02-02T19:00:04.089Z,3.50
2023-02-02T19:02:30.501Z,3.37
2023-02-02T19:05:16.209Z,3.45
2023-02-02T19:07:54.447Z,3.51
2023-02-02T19:10:22.586Z,3.53
2023-02-02T19:13:02.460Z,3.58
2023-02-02T19:15:29.284Z,3.56
2023-02-02T19:17:55.739Z,3.46
2023-02-02T19:20:28.546Z,3.55
2023-02-02T19:23:12.308Z,3.50
2023-02-02T19:25:46.378Z,3.65
2023-02-02T19:28:25.188Z,3.55
2023-02-02T19:30:57.100Z,3.66
2023-02-02T19:33:48.424Z,3.76
2023-02-02T19:36:23.455Z,3.77
2023-02-02T19:38:55.795Z,3.66
2023-02-02T19:41:26.545Z,3.70
2023-02-02T19:43:59.628Z,3.76
2023-02-02T19:46:28.150Z,3.78
2023-02-02T19:49:10.885Z,3.75
2023-02-02T19:51:45.572Z,3.80
2023-02-02T19:54:36.069Z,3.63
2023-02-02T19:57:33.242Z,3.69
2023-02-02T20:00:11.576Z,3.69
2023-02-02T20:02:43.474Z,3.73
2023-02-02T20:05:23.117Z,3.72
2023-02-02T20:08:12.490Z,3.75
2023-02-02T20:10:43.716Z,3.76
2023-02-02T20:13:16.215Z,3.65
2023-02-02T20:15:43.004Z,3.72
2023-02-02T20:18:23.527Z,3.69
2023-02-02T20:20:54.010Z,3.62
2023-02-02T20:23:33.497Z,3.54
2023-02-02T20:26:03.800Z,3.48
2023-02-02T20:28:41.569Z,3.39
2023-02-02T20:31:11.279Z,3.42
2023-02-02T20:33:42.047Z,3.39
2023-02-02T20:36:38.141Z,3.51
2023-02-02T20:39:35.003Z,3.46
2023-02-02T20:42:03.084Z,3.47
2023-02-02T20:44:31.232Z,3.46
2023-02-02T20:47:00.167Z,3.44
2023-02-02T20:49:28.831Z,3.39
2023-02-02T20:51:56.695Z,3.52
2023-02-02T20:54:24.683Z,3.48
2023-02-02T20:56:51.988Z,3.44
2023-02-02T20:59:19.995Z,3.43
2023-02-02T21:01:47.200Z,3.38
2023-02-02T21:04:13.587Z,3.40
2023-02-02T21:06:40.998Z,3.37
2023-02-02T21:09:09.651Z,3.40
2023-02-02T21:11:36.304Z,3.34
2023-02-02T21:14:03.361Z,3.50
2023-02-02T21:16:29.959Z,3.41
2023-02-02T21:18:57.184Z,3.39
2023-02-02T21:21:24.030Z,3.37
2023-02-02T21:23:51.469Z,3.45
2023-02-02T21:26:20.776Z,3.37
2023-02-02T21:28:48.520Z,3.30
2023-02-02T21:31:16.997Z,3.33
2023-02-02T21:33:48.599Z,3.28
2023-02-02T21:36:28.959Z,3.43
2023-02-02T21:39:29.685Z,3.38
2023-02-02T21:42:08.346Z,3.31
2023-02-02T21:44:37.271Z,3.39
2023-02-02T21:47:22.598Z,3.39
2023-02-02T21:49:49.354Z,3.38
2023-02-02T21:52:17.426Z,3.38
2023-02-02T21:54:45.132Z,3.39
2023-02-02T21:57:20.764Z,3.46
2023-02-02T21:59:54.108Z,3.51
2023-02-02T22:02:40.253Z,3.62
2023-02-02T22:05:36.123Z,3.53
2023-02-02T22:08:18.689Z,3.52
2023-02-02T22:10:45.945Z,3.50
2023-02-02T22:13:22.844Z,3.55
2023-02-02T22:15:52.710Z,3.62
2023-02-02T22:18:22.759Z,3.53
2023-02-02T22:20:51.258Z,3.69
2023-02-02T22:23:21.547Z,3.57
2023-02-02T22:25:50.470Z,3.56
2023-02-02T22:28:28.840Z,3.56
2023-02-02T22:30:56.726Z,3.68
2023-02-02T22:33:23.628Z,3.74
2023-02-02T22:35:50.933Z,3.67
2023-02-02T22:38:21.035Z,3.73
2023-02-02T22:40:48.398Z,3.68
2023-02-02T22:43:16.523Z,3.68
2023-02-02T22:45:43.945Z,3.63
2023-02-02T22:48:12.312Z,3.56
2023-02-02T22:50:39.085Z,3.64
2023-02-02T22:53:05.687Z,3.73
2023-02-02T22:55:33.723Z,3.55
2023-02-02T22:58:00.773Z,3.57
2023-02-02T23:00:30.066Z,3.55
2023-02-02T23:02:57.862Z,3.62
2023-02-02T23:05:26.283Z,3.66
2023-02-02T23:07:53.728Z,3.56
2023-02-02T23:10:26.327Z,3.66
2023-02-02T23:12:54.911Z,3.62
2023-02-02T23:15:21.466Z,3.51
2023-02-02T23:17:49.067Z,3.47
2023-02-02T23:20:16.564Z,3.40
2023-02-02T23:22:43.118Z,3.40
2023-02-02T23:25:10.996Z,3.43
2023-02-02T23:27:37.907Z,3.42
2023-02-02T23:30:05.787Z,3.48
2023-02-02T23:32:32.625Z,3.44
2023-02-02T23:34:59.061Z,3.47
2023-02-02T23:37:25.471Z,3.58
2023-02-02T23:39:52.216Z,3.39
2023-02-02T23:42:18.637Z,3.41
2023-02-02T23:44:45.084Z,3.50
2023-02-02T23:47:12.075Z,3.54
2023-02-02T23:49:38.853Z,3.57
2023-02-02T23:52:06.924Z,3.51
2023-02-02T23:54:34.152Z,3.52
2023-02-02T23:57:01.611Z,3.49
2023-02-02T23:59:28.308Z,3.41
